Abaira, Brazil
Current Conditions -  °F | °C
As of 11:37 PM on Tuesday 21 Oct 2014 (Local Time) from SBQV Reporting Station
Few Clouds Few Clouds  
Wind Chill: 66°   Ceiling: Unl
Heat Index: 66°   Visibility: 6mi
Dew Point: 64°   Wind: 13mph
Humidity: 94%   Direction: 100°E
Pressure: 30.12"   Gusts: NA
Location:  13.25°S, 41.66°W
Report Text: SBQV 220237Z 10011KT 9999 FEW009 19/18 Q1020
Loading
Personal Weather Stations






























Interactive Weather Map
Tropical Storm Tracking
New forecast layout! Learn more

10-Day Weather Forecast

Advertisements
Track Severe Weather on mobile